Time;durP1;ratioP1;P1;durP2;ratioP2;P2;SDS_P1;SDS_P2;PMS_P1;PMS_P2;Temp;Humidity;BMP_temperature;BMP_pressure;BME280_temperature;BME280_humidity;BME280_pressure;Samples;Min_cycle;Max_cycle;Signal;HPM_P1;HPM_P2
2022/04/14 00:01:34;;;;;;;20.88;12.23;;;;;;;;;;4995399;28;20096;-63
2022/04/14 00:04:00;;;;;;;22.73;12.77;;;;;;;;;;4995505;28;20054;-63
2022/04/14 00:06:26;;;;;;;21.10;12.73;;;;;;;;;;4994961;28;20030;-63
2022/04/14 00:08:54;;;;;;;23.75;11.80;;;;;;;;;;4994924;28;20110;-63
2022/04/14 00:11:20;;;;;;;20.80;12.52;;;;;;;;;;4995071;28;20388;-63
2022/04/14 00:13:45;;;;;;;23.35;12.15;;;;;;;;;;4995214;28;20034;-63
2022/04/14 00:16:11;;;;;;;19.25;11.68;;;;;;;;;;4995296;28;20056;-62
2022/04/14 00:18:36;;;;;;;19.88;12.45;;;;;;;;;;4995350;28;20019;-63
2022/04/14 00:21:02;;;;;;;21.67;12.65;;;;;;;;;;4995144;28;20022;-62
2022/04/14 00:23:27;;;;;;;20.55;12.27;;;;;;;;;;4994987;28;20096;-62
2022/04/14 00:25:53;;;;;;;20.08;13.02;;;;;;;;;;5003531;28;20026;-63
2022/04/14 00:28:18;;;;;;;25.10;13.43;;;;;;;;;;5014653;28;20029;-63
2022/04/14 00:30:44;;;;;;;22.83;12.93;;;;;;;;;;5014573;28;20060;-63
2022/04/14 00:33:09;;;;;;;27.15;14.10;;;;;;;;;;5014483;28;20564;-64
2022/04/14 00:35:35;;;;;;;21.20;12.80;;;;;;;;;;5014495;28;20020;-64
2022/04/14 00:38:00;;;;;;;22.38;13.77;;;;;;;;;;5014419;28;20379;-64
2022/04/14 00:40:26;;;;;;;22.25;12.32;;;;;;;;;;5014208;28;20137;-63
2022/04/14 00:42:51;;;;;;;21.85;12.88;;;;;;;;;;5014347;28;20081;-63
2022/04/14 00:45:17;;;;;;;24.52;13.05;;;;;;;;;;5014309;28;20391;-64
2022/04/14 00:47:43;;;;;;;22.38;12.90;;;;;;;;;;5014176;28;20017;-63
2022/04/14 00:50:08;;;;;;;20.40;12.85;;;;;;;;;;5010340;22;20047;-63
2022/04/14 00:52:34;;;;;;;18.98;12.20;;;;;;;;;;4994606;28;20023;-63
2022/04/14 00:54:59;;;;;;;20.80;12.85;;;;;;;;;;4994228;28;20061;-63
2022/04/14 00:57:25;;;;;;;19.15;12.77;;;;;;;;;;4994699;28;20037;-63
2022/04/14 00:59:51;;;;;;;23.40;13.30;;;;;;;;;;4994549;28;20448;-63
2022/04/14 01:02:16;;;;;;;26.40;14.07;;;;;;;;;;4994404;28;20073;-63
2022/04/14 01:04:43;;;;;;;26.40;14.02;;;;;;;;;;4994452;28;20430;-62
2022/04/14 01:07:09;;;;;;;25.42;13.40;;;;;;;;;;4994225;28;20038;-63
2022/04/14 01:09:36;;;;;;;24.92;13.85;;;;;;;;;;4992822;28;20030;-63
2022/04/14 01:12:03;;;;;;;25.90;14.40;;;;;;;;;;4994251;28;20084;-62
2022/04/14 01:14:33;;;;;;;27.58;14.50;;;;;;;;;;4994104;28;20034;-62
2022/04/14 01:17:01;;;;;;;25.05;14.20;;;;;;;;;;4993953;28;20058;-62
2022/04/14 01:19:28;;;;;;;26.73;13.90;;;;;;;;;;4994090;28;20030;-63
2022/04/14 01:22:06;;;;;;;25.52;13.63;;;;;;;;;;4994132;28;20491;-63
2022/04/14 01:24:32;;;;;;;26.33;14.40;;;;;;;;;;4993819;28;20401;-63
2022/04/14 01:27:00;;;;;;;26.05;13.80;;;;;;;;;;4993735;28;20026;-62
2022/04/14 01:29:26;;;;;;;25.15;13.95;;;;;;;;;;4993914;28;20376;-62
2022/04/14 01:31:53;;;;;;;29.13;14.63;;;;;;;;;;4993789;28;20026;-63
2022/04/14 01:34:19;;;;;;;24.42;13.38;;;;;;;;;;4993807;28;20388;-62
2022/04/14 01:36:44;;;;;;;26.58;14.75;;;;;;;;;;4993953;28;20031;-63
2022/04/14 01:39:11;;;;;;;27.52;13.80;;;;;;;;;;4993523;28;20379;-64
2022/04/14 01:41:44;;;;;;;24.38;13.85;;;;;;;;;;4993574;28;20029;-63
2022/04/14 01:44:11;;;;;;;23.38;14.05;;;;;;;;;;4993780;28;20030;-62
2022/04/14 01:46:41;;;;;;;28.33;14.10;;;;;;;;;;4993680;28;20018;-62
2022/04/14 01:49:08;;;;;;;26.02;13.88;;;;;;;;;;4993381;28;20129;-63
2022/04/14 01:51:34;;;;;;;35.45;14.98;;;;;;;;;;4993393;28;20125;-63
2022/04/14 01:54:00;;;;;;;23.20;13.82;;;;;;;;;;4993264;28;20031;-63
2022/04/14 01:56:26;;;;;;;27.30;14.13;;;;;;;;;;4993422;28;20026;-63
2022/04/14 01:58:52;;;;;;;23.45;13.63;;;;;;;;;;4993501;28;20027;-63
2022/04/14 02:01:18;;;;;;;24.00;13.43;;;;;;;;;;4993319;28;20038;-62
2022/04/14 02:03:44;;;;;;;22.13;13.57;;;;;;;;;;4993462;28;20034;-63
2022/04/14 02:06:09;;;;;;;26.05;12.88;;;;;;;;;;4993420;28;20058;-62
2022/04/14 02:08:36;;;;;;;23.42;13.52;;;;;;;;;;4993089;28;20026;-62
2022/04/14 02:11:02;;;;;;;27.17;13.65;;;;;;;;;;4993166;28;20062;-62
2022/04/14 02:13:29;;;;;;;24.10;12.70;;;;;;;;;;4993214;28;20479;-62
2022/04/14 02:15:55;;;;;;;24.08;14.25;;;;;;;;;;4993255;28;20025;-63
2022/04/14 02:18:20;;;;;;;24.45;12.95;;;;;;;;;;4993206;28;20411;-62
2022/04/14 02:20:46;;;;;;;23.40;12.95;;;;;;;;;;4993004;28;20450;-62
2022/04/14 02:23:11;;;;;;;25.92;12.73;;;;;;;;;;4992967;28;20619;-62
2022/04/14 02:25:37;;;;;;;25.70;13.68;;;;;;;;;;4992992;28;20026;-62
2022/04/14 02:28:02;;;;;;;26.48;13.57;;;;;;;;;;4993061;28;20495;-62
2022/04/14 02:30:28;;;;;;;25.92;13.70;;;;;;;;;;4992441;28;20093;-63
2022/04/14 02:32:54;;;;;;;26.45;14.40;;;;;;;;;;4992944;28;20054;-63
2022/04/14 02:35:20;;;;;;;25.70;14.90;;;;;;;;;;4992775;28;20032;-62
2022/04/14 02:37:45;;;;;;;23.65;14.70;;;;;;;;;;4992946;28;20113;-63
2022/04/14 02:40:11;;;;;;;30.25;16.30;;;;;;;;;;4992911;28;20538;-63
2022/04/14 02:42:36;;;;;;;26.23;14.35;;;;;;;;;;4993054;28;20158;-62
2022/04/14 02:45:02;;;;;;;31.45;15.35;;;;;;;;;;4992720;28;20209;-62
2022/04/14 02:47:28;;;;;;;29.63;15.93;;;;;;;;;;4992789;28;20022;-62
2022/04/14 02:49:54;;;;;;;39.25;17.15;;;;;;;;;;4992311;28;20408;-62
2022/04/14 02:52:19;;;;;;;23.45;15.02;;;;;;;;;;4992584;28;20581;-63
2022/04/14 02:54:45;;;;;;;29.42;17.25;;;;;;;;;;4992800;28;20033;-63
2022/04/14 02:57:10;;;;;;;28.25;15.65;;;;;;;;;;4992591;28;20026;-63
2022/04/14 02:59:36;;;;;;;27.38;16.13;;;;;;;;;;4992770;28;20161;-63
2022/04/14 03:02:03;;;;;;;26.50;14.88;;;;;;;;;;4992681;28;20034;-63
2022/04/14 03:04:30;;;;;;;28.98;15.30;;;;;;;;;;4992552;28;20112;-63
2022/04/14 03:06:56;;;;;;;25.83;15.30;;;;;;;;;;4992682;28;20033;-62
2022/04/14 03:09:21;;;;;;;29.38;16.13;;;;;;;;;;4992779;28;20499;-62
2022/04/14 03:11:47;;;;;;;28.42;15.75;;;;;;;;;;4992652;28;20034;-62
2022/04/14 03:14:12;;;;;;;26.67;15.23;;;;;;;;;;4992673;28;20033;-64
2022/04/14 03:16:38;;;;;;;23.77;14.68;;;;;;;;;;4992607;28;20026;-62
2022/04/14 03:19:04;;;;;;;25.20;15.00;;;;;;;;;;4992231;28;20427;-62
2022/04/14 03:21:29;;;;;;;27.25;14.93;;;;;;;;;;4992719;28;20028;-62
2022/04/14 03:23:55;;;;;;;25.85;14.77;;;;;;;;;;4992517;28;20069;-62
2022/04/14 03:26:20;;;;;;;34.47;15.25;;;;;;;;;;4992071;28;20026;-63
2022/04/14 03:28:46;;;;;;;27.27;15.68;;;;;;;;;;4992588;28;20320;-62
2022/04/14 03:31:11;;;;;;;30.60;16.00;;;;;;;;;;4992354;28;20023;-63
2022/04/14 03:33:37;;;;;;;29.98;16.17;;;;;;;;;;4992313;28;20023;-63
2022/04/14 03:36:03;;;;;;;28.40;15.50;;;;;;;;;;4992579;28;20054;-63
2022/04/14 03:38:28;;;;;;;31.10;15.57;;;;;;;;;;4992444;28;20058;-64
2022/04/14 03:40:54;;;;;;;39.38;16.75;;;;;;;;;;4992340;28;20027;-63
2022/04/14 03:43:20;;;;;;;33.10;16.17;;;;;;;;;;4994600;28;20039;-63
2022/04/14 03:45:45;;;;;;;24.58;15.23;;;;;;;;;;4995887;28;20046;-63
2022/04/14 03:48:11;;;;;;;29.23;14.85;;;;;;;;;;4995535;28;20121;-63
2022/04/14 03:50:36;;;;;;;35.85;15.73;;;;;;;;;;4995528;28;20598;-63
2022/04/14 03:53:02;;;;;;;26.42;14.95;;;;;;;;;;4995479;28;20045;-64
2022/04/14 03:55:27;;;;;;;23.20;14.57;;;;;;;;;;4995697;28;20026;-63
2022/04/14 03:57:53;;;;;;;23.75;14.52;;;;;;;;;;4995568;28;20022;-64
2022/04/14 04:00:18;;;;;;;30.25;15.13;;;;;;;;;;5008059;28;20022;-63
2022/04/14 04:02:44;;;;;;;32.67;15.57;;;;;;;;;;5014965;28;20030;-63
2022/04/14 04:05:09;;;;;;;25.65;15.13;;;;;;;;;;5015009;28;20026;-63
2022/04/14 04:07:35;;;;;;;29.33;15.60;;;;;;;;;;5015077;28;20033;-63
2022/04/14 04:10:01;;;;;;;30.27;15.30;;;;;;;;;;5015178;28;20084;-63
2022/04/14 04:12:27;;;;;;;26.90;15.43;;;;;;;;;;5014976;28;20030;-63
2022/04/14 04:14:52;;;;;;;32.17;16.20;;;;;;;;;;4999112;28;20054;-62
2022/04/14 04:17:18;;;;;;;30.55;16.42;;;;;;;;;;4995043;28;20077;-63
2022/04/14 04:19:44;;;;;;;22.73;15.10;;;;;;;;;;4995512;28;20416;-63
2022/04/14 04:22:10;;;;;;;32.28;16.30;;;;;;;;;;4995221;28;20100;-63
2022/04/14 04:24:36;;;;;;;34.63;16.30;;;;;;;;;;4995234;28;20061;-62
2022/04/14 04:27:02;;;;;;;30.52;15.38;;;;;;;;;;4994771;28;20022;-62
2022/04/14 04:29:28;;;;;;;36.30;16.77;;;;;;;;;;4994849;28;20041;-63
2022/04/14 04:31:53;;;;;;;30.48;16.52;;;;;;;;;;4994896;28;20113;-63
2022/04/14 04:34:19;;;;;;;39.55;16.98;;;;;;;;;;4995000;28;20092;-63
2022/04/14 04:36:45;;;;;;;38.55;16.42;;;;;;;;;;4995002;28;20471;-62
2022/04/14 04:39:10;;;;;;;30.13;17.33;;;;;;;;;;4994905;28;20034;-62
2022/04/14 04:41:37;;;;;;;28.27;15.88;;;;;;;;;;4994858;28;20030;-62
2022/04/14 04:44:04;;;;;;;28.92;16.55;;;;;;;;;;4994922;28;20034;-63
2022/04/14 04:46:30;;;;;;;30.23;16.63;;;;;;;;;;4994533;28;20026;-62
2022/04/14 04:48:56;;;;;;;32.60;17.30;;;;;;;;;;4994694;28;20030;-63
2022/04/14 04:51:21;;;;;;;31.02;16.33;;;;;;;;;;4994694;28;20130;-62
2022/04/14 04:53:47;;;;;;;28.58;16.70;;;;;;;;;;4994113;28;20080;-63
2022/04/14 04:56:13;;;;;;;28.35;16.02;;;;;;;;;;4993127;28;20117;-63
2022/04/14 04:58:38;;;;;;;31.65;16.35;;;;;;;;;;4994518;28;20050;-63
2022/04/14 05:01:04;;;;;;;42.88;17.85;;;;;;;;;;4994249;28;20031;-63
2022/04/14 05:03:29;;;;;;;46.63;18.70;;;;;;;;;;4994514;28;20117;-63
2022/04/14 05:05:55;;;;;;;42.85;17.40;;;;;;;;;;4994373;28;20037;-62
2022/04/14 05:08:20;;;;;;;47.67;17.88;;;;;;;;;;4994052;28;20146;-62
2022/04/14 05:10:45;;;;;;;36.30;16.65;;;;;;;;;;4994232;28;20062;-62
2022/04/14 05:13:14;;;;;;;35.15;16.33;;;;;;;;;;4994191;28;20028;-64
2022/04/14 05:15:40;;;;;;;33.55;16.80;;;;;;;;;;4993989;28;20145;-63
2022/04/14 05:18:05;;;;;;;31.58;16.63;;;;;;;;;;4994099;28;20049;-62
2022/04/14 05:20:31;;;;;;;38.17;17.23;;;;;;;;;;4993894;28;20038;-62
2022/04/14 05:22:57;;;;;;;39.58;17.30;;;;;;;;;;4993718;28;20425;-63
2022/04/14 05:25:22;;;;;;;32.38;17.02;;;;;;;;;;4993964;28;20030;-62
2022/04/14 05:27:48;;;;;;;38.00;17.60;;;;;;;;;;4993478;28;20026;-63
2022/04/14 05:30:14;;;;;;;40.90;17.15;;;;;;;;;;4993516;28;20073;-63
2022/04/14 05:32:40;;;;;;;37.78;17.67;;;;;;;;;;4993735;28;20089;-63
2022/04/14 05:35:09;;;;;;;42.42;20.13;;;;;;;;;;4993589;28;20387;-62
2022/04/14 05:37:35;;;;;;;39.00;22.58;;;;;;;;;;4993736;28;20031;-62
2022/04/14 05:40:05;;;;;;;46.95;21.52;;;;;;;;;;4993758;28;20050;-62
2022/04/14 05:42:31;;;;;;;52.88;21.10;;;;;;;;;;4993642;28;20102;-62
2022/04/14 05:44:57;;;;;;;42.15;18.95;;;;;;;;;;4993344;28;20035;-62
2022/04/14 05:47:24;;;;;;;39.42;18.52;;;;;;;;;;4993636;28;20040;-63
2022/04/14 05:49:51;;;;;;;36.95;17.80;;;;;;;;;;4993314;28;20057;-62
2022/04/14 05:52:17;;;;;;;31.27;17.90;;;;;;;;;;4993447;28;20031;-63
2022/04/14 05:54:46;;;;;;;35.80;17.83;;;;;;;;;;4993396;28;20026;-63
2022/04/14 05:57:11;;;;;;;34.63;18.50;;;;;;;;;;4993337;28;20361;-63
2022/04/14 05:59:37;;;;;;;38.65;20.77;;;;;;;;;;4993278;28;20030;-63
2022/04/14 06:02:03;;;;;;;32.42;19.42;;;;;;;;;;4993617;28;20105;-63
2022/04/14 06:04:28;;;;;;;30.38;19.63;;;;;;;;;;4992899;28;20023;-63
2022/04/14 06:06:53;;;;;;;45.40;22.13;;;;;;;;;;4992948;28;20357;-64
2022/04/14 06:09:19;;;;;;;65.07;26.80;;;;;;;;;;4991432;28;20105;-63
2022/04/14 06:11:44;;;;;;;54.85;26.10;;;;;;;;;;4993129;28;20480;-63
2022/04/14 06:14:10;;;;;;;46.47;21.60;;;;;;;;;;4992925;28;20026;-63
2022/04/14 06:16:35;;;;;;;44.20;22.25;;;;;;;;;;4993089;28;20026;-64
2022/04/14 06:19:01;;;;;;;38.38;19.50;;;;;;;;;;4993035;28;20022;-63
2022/04/14 06:21:27;;;;;;;49.20;20.45;;;;;;;;;;4993193;28;20113;-64
2022/04/14 06:23:52;;;;;;;45.67;20.95;;;;;;;;;;4993349;28;20041;-63
2022/04/14 06:26:18;;;;;;;44.33;21.98;;;;;;;;;;4992868;28;20031;-63
2022/04/14 06:28:46;;;;;;;51.10;25.65;;;;;;;;;;4992826;28;20097;-62
2022/04/14 06:31:12;;;;;;;42.92;22.92;;;;;;;;;;4993080;28;20396;-63
2022/04/14 06:33:38;;;;;;;51.15;22.38;;;;;;;;;;4993011;28;20026;-63
2022/04/14 06:36:03;;;;;;;59.88;22.73;;;;;;;;;;4992956;28;20452;-62
2022/04/14 06:38:29;;;;;;;41.58;21.77;;;;;;;;;;4992978;28;20029;-63
2022/04/14 06:40:55;;;;;;;40.30;21.70;;;;;;;;;;4992939;28;20025;-63
2022/04/14 06:43:20;;;;;;;47.13;22.08;;;;;;;;;;4992751;28;20044;-62
2022/04/14 06:45:47;;;;;;;41.25;22.80;;;;;;;;;;4992844;28;20039;-64
2022/04/14 06:48:13;;;;;;;40.53;21.50;;;;;;;;;;4992759;28;20152;-63
2022/04/14 06:50:40;;;;;;;47.92;20.73;;;;;;;;;;4992674;28;20146;-63
2022/04/14 06:53:06;;;;;;;36.67;19.00;;;;;;;;;;4992617;28;20034;-63
2022/04/14 06:55:32;;;;;;;45.95;20.20;;;;;;;;;;4992787;28;20064;-63
2022/04/14 06:57:58;;;;;;;47.83;20.50;;;;;;;;;;4992651;28;20057;-64
2022/04/14 07:00:24;;;;;;;50.55;20.45;;;;;;;;;;4992793;28;20069;-63
2022/04/14 07:02:51;;;;;;;42.78;19.42;;;;;;;;;;4992766;28;20030;-63
2022/04/14 07:05:17;;;;;;;31.88;18.48;;;;;;;;;;4992600;28;20026;-63
2022/04/14 07:07:43;;;;;;;33.22;16.83;;;;;;;;;;4992698;28;20242;-63
2022/04/14 07:10:11;;;;;;;37.55;18.02;;;;;;;;;;4992667;28;20076;-63
2022/04/14 07:12:37;;;;;;;34.05;17.50;;;;;;;;;;4992391;28;20039;-62
2022/04/14 07:15:03;;;;;;;28.77;16.60;;;;;;;;;;4992580;28;20030;-63
2022/04/14 07:17:29;;;;;;;35.08;20.55;;;;;;;;;;4995451;28;20364;-63
2022/04/14 07:19:54;;;;;;;28.42;16.85;;;;;;;;;;4992104;28;20348;-63
2022/04/14 07:22:20;;;;;;;25.23;16.60;;;;;;;;;;4987448;28;20027;-62
2022/04/14 07:24:50;;;;;;;34.05;17.85;;;;;;;;;;4975680;28;20497;-63
2022/04/14 07:27:20;;;;;;;30.70;17.10;;;;;;;;;;4976575;28;20037;-62
2022/04/14 07:29:46;;;;;;;;;;;;;;;;;;4996524;28;20031;-63
2022/04/14 07:32:13;;;;;;;30.02;17.88;;;;;;;;;;4996218;28;19914;-62
2022/04/14 07:34:38;;;;;;;39.63;19.33;;;;;;;;;;4995327;28;20352;-63
2022/04/14 07:37:04;;;;;;;37.25;17.98;;;;;;;;;;4996124;28;20033;-63
2022/04/14 07:39:30;;;;;;;37.75;19.35;;;;;;;;;;4996150;28;20057;-63
2022/04/14 07:41:55;;;;;;;35.17;20.52;;;;;;;;;;4996002;28;20068;-62
2022/04/14 07:44:21;;;;;;;34.17;19.85;;;;;;;;;;4995864;28;20453;-63
2022/04/14 07:46:47;;;;;;;29.85;18.33;;;;;;;;;;4995820;28;20023;-62
2022/04/14 07:49:12;;;;;;;41.05;19.35;;;;;;;;;;4995614;28;20642;-62
2022/04/14 07:51:38;;;;;;;31.20;17.90;;;;;;;;;;4995678;28;20030;-62
2022/04/14 07:54:03;;;;;;;33.05;19.63;;;;;;;;;;4995742;28;20034;-62
2022/04/14 07:56:29;;;;;;;31.45;18.13;;;;;;;;;;4995345;28;20027;-63
2022/04/14 07:58:54;;;;;;;34.78;18.85;;;;;;;;;;4995597;28;20476;-63
2022/04/14 08:01:20;;;;;;;33.38;19.20;;;;;;;;;;4995676;28;20401;-63
2022/04/14 08:03:47;;;;;;;31.23;18.45;;;;;;;;;;4995768;28;20034;-63
2022/04/14 08:06:13;;;;;;;34.83;19.23;;;;;;;;;;4995005;28;20468;-62
2022/04/14 08:08:40;;;;;;;33.42;19.88;;;;;;;;;;4995600;28;20034;-63
2022/04/14 08:11:08;;;;;;;32.20;18.38;;;;;;;;;;4995129;28;20418;-62
2022/04/14 08:13:37;;;;;;;33.97;19.10;;;;;;;;;;4995463;28;20483;-64
2022/04/14 08:16:08;;;;;;;35.75;19.42;;;;;;;;;;4995364;28;20030;-63
2022/04/14 08:18:37;;;;;;;33.05;19.08;;;;;;;;;;4995322;28;20030;-62
2022/04/14 08:21:03;;;;;;;39.80;20.73;;;;;;;;;;4994914;28;20094;-61
2022/04/14 08:23:30;;;;;;;32.10;17.08;;;;;;;;;;4995045;28;20499;-61
2022/04/14 08:25:55;;;;;;;24.98;14.43;;;;;;;;;;4995083;28;20058;-62
2022/04/14 08:28:21;;;;;;;25.05;14.27;;;;;;;;;;4994151;28;20473;-62
2022/04/14 08:30:47;;;;;;;21.70;13.55;;;;;;;;;;4986314;28;20488;-62
2022/04/14 08:33:13;;;;;;;21.10;13.40;;;;;;;;;;4995078;28;20483;-62
2022/04/14 08:35:39;;;;;;;19.33;12.25;;;;;;;;;;4994639;28;20026;-63
2022/04/14 08:38:08;;;;;;;18.88;12.27;;;;;;;;;;4994265;28;20061;-62
2022/04/14 08:40:39;;;;;;;22.60;12.80;;;;;;;;;;4995052;28;20076;-63
2022/04/14 08:43:07;;;;;;;19.63;12.10;;;;;;;;;;4991572;28;20073;-63
2022/04/14 08:45:34;;;;;;;23.20;12.07;;;;;;;;;;4981904;28;20487;-62
2022/04/14 08:48:02;;;;;;;23.10;12.00;;;;;;;;;;4994751;28;20037;-62
2022/04/14 08:50:28;;;;;;;24.65;11.45;;;;;;;;;;4994419;28;20073;-63
2022/04/14 08:52:54;;;;;;;18.13;10.93;;;;;;;;;;4994605;28;20185;-62
2022/04/14 08:55:20;;;;;;;14.27;9.85;;;;;;;;;;4994649;28;20029;-62
2022/04/14 08:57:47;;;;;;;16.90;10.27;;;;;;;;;;4994714;28;20027;-62
2022/04/14 09:00:18;;;;;;;21.45;10.60;;;;;;;;;;4994617;28;20065;-62
2022/04/14 09:02:50;;;;;;;19.95;10.40;;;;;;;;;;4994483;28;20096;-62
2022/04/14 09:05:17;;;;;;;14.60;9.52;;;;;;;;;;4994437;28;20030;-63
2022/04/14 09:07:50;;;;;;;22.10;9.32;;;;;;;;;;4994253;28;20034;-63
2022/04/14 09:10:19;;;;;;;19.60;9.93;;;;;;;;;;4993995;28;20117;-62
2022/04/14 09:12:49;;;;;;;16.42;9.20;;;;;;;;;;4994282;28;20042;-62
2022/04/14 09:15:15;;;;;;;17.27;9.70;;;;;;;;;;4994401;28;20037;-62
2022/04/14 09:17:42;;;;;;;16.05;10.45;;;;;;;;;;4994244;28;20511;-63
2022/04/14 09:20:34;;;;;;;21.70;11.25;;;;;;;;;;4994134;28;20069;-63
2022/04/14 09:23:21;;;;;;;17.52;11.30;;;;;;;;;;4993842;28;20037;-62
2022/04/14 09:25:59;;;;;;;17.67;10.38;;;;;;;;;;4993884;28;20101;-62
2022/04/14 09:28:25;;;;;;;17.42;11.25;;;;;;;;;;4993874;28;20053;-62
2022/04/14 09:31:02;;;;;;;19.55;11.68;;;;;;;;;;4993592;28;20018;-63
2022/04/14 09:33:28;;;;;;;17.60;11.73;;;;;;;;;;4993893;28;20023;-63
2022/04/14 09:36:23;;;;;;;20.88;12.73;;;;;;;;;;4993662;28;20026;-63
2022/04/14 09:38:55;;;;;;;16.38;11.20;;;;;;;;;;4980935;28;20088;-63
2022/04/14 09:41:40;;;;;;;18.33;12.00;;;;;;;;;;4992937;28;20053;-63
2022/04/14 09:44:08;;;;;;;24.55;12.77;;;;;;;;;;4993805;28;20023;-63
2022/04/14 09:46:34;;;;;;;22.77;11.90;;;;;;;;;;4993478;28;20114;-63
2022/04/14 09:49:05;;;;;;;27.38;11.50;;;;;;;;;;4993405;28;20080;-62
2022/04/14 09:51:31;;;;;;;;;;;;;;;;;;4993834;28;20031;-64
2022/04/14 09:54:17;;;;;;;21.17;11.15;;;;;;;;;;4989905;28;19924;-64
2022/04/14 09:56:54;;;;;;;18.73;10.82;;;;;;;;;;4992863;28;20060;-63
2022/04/14 09:59:25;;;;;;;17.58;11.52;;;;;;;;;;4992664;28;20033;-63
2022/04/14 10:04:31;;;;;;;20.50;12.43;;;;;;;;;;4991678;28;20043;-59
2022/04/14 10:07:06;;;;;;;22.33;12.25;;;;;;;;;;4992980;28;20061;-60
2022/04/14 10:09:33;;;;;;;20.27;11.93;;;;;;;;;;4993205;28;20038;-60
2022/04/14 10:11:59;;;;;;;18.23;10.50;;;;;;;;;;4993217;28;20030;-60
2022/04/14 10:14:25;;;;;;;23.67;13.27;;;;;;;;;;4993182;28;20479;-60
2022/04/14 10:16:50;;;;;;;21.35;13.45;;;;;;;;;;4993122;28;20037;-61
2022/04/14 10:19:17;;;;;;;25.52;15.10;;;;;;;;;;4993067;28;20124;-60
2022/04/14 10:21:44;;;;;;;26.25;14.93;;;;;;;;;;4992943;28;20034;-58
2022/04/14 10:24:11;;;;;;;21.52;14.45;;;;;;;;;;4992857;28;20057;-59
2022/04/14 10:26:37;;;;;;;24.52;14.80;;;;;;;;;;4992726;28;20031;-58
2022/04/14 10:29:06;;;;;;;22.08;14.00;;;;;;;;;;4992693;28;20500;-59
2022/04/14 10:31:35;;;;;;;22.55;13.05;;;;;;;;;;4991353;28;20036;-59
2022/04/14 10:34:04;;;;;;;23.15;15.73;;;;;;;;;;4992636;28;20412;-60
2022/04/14 10:36:32;;;;;;;23.88;14.05;;;;;;;;;;4991399;28;20475;-60
2022/04/14 10:38:59;;;;;;;30.05;21.02;;;;;;;;;;4992721;28;20442;-58
2022/04/14 10:41:30;;;;;;;32.47;20.48;;;;;;;;;;4992322;28;20431;-59
2022/04/14 10:44:00;;;;;;;38.15;25.67;;;;;;;;;;4992689;28;20026;-60
2022/04/14 10:46:37;;;;;;;32.50;19.88;;;;;;;;;;4991185;28;20468;-59
2022/04/14 10:49:14;;;;;;;31.73;19.30;;;;;;;;;;4992540;28;20400;-59
2022/04/14 10:51:40;;;;;;;34.47;20.02;;;;;;;;;;4994108;28;20105;-58
2022/04/14 10:54:11;;;;;;;32.38;18.98;;;;;;;;;;4996549;28;20357;-59
2022/04/14 10:56:36;;;;;;;;;;;;;;;;;;4996770;28;20033;-58
2022/04/14 10:59:16;;;;;;;21.27;14.23;;;;;;;;;;4996569;28;19914;-58
2022/04/14 11:04:44;;;;;;;21.45;13.75;;;;;;;;;;5008941;28;20050;-58
2022/04/14 11:07:12;;;;;;;20.70;15.20;;;;;;;;;;4996106;28;20398;-58
2022/04/14 11:09:44;;;;;;;19.70;12.80;;;;;;;;;;4996458;28;20030;-59
2022/04/14 11:12:17;;;;;;;20.75;12.82;;;;;;;;;;4996181;28;20097;-58
2022/04/14 11:14:48;;;;;;;20.98;12.77;;;;;;;;;;4996266;28;20033;-57
2022/04/14 11:17:48;;;;;;;19.15;12.30;;;;;;;;;;4994879;28;20018;-59
2022/04/14 11:20:28;;;;;;;23.30;12.93;;;;;;;;;;4996039;28;20069;-61
2022/04/14 11:23:08;;;;;;;17.77;12.48;;;;;;;;;;4996170;28;20109;-58
2022/04/14 11:25:46;;;;;;;16.88;10.90;;;;;;;;;;4996040;28;20022;-59
2022/04/14 11:28:25;;;;;;;17.23;10.68;;;;;;;;;;4995993;28;20030;-60
2022/04/14 11:30:56;;;;;;;15.63;10.02;;;;;;;;;;4996291;28;20345;-59
2022/04/14 11:33:22;;;;;;;14.35;9.05;;;;;;;;;;4995695;28;20022;-59
2022/04/14 11:35:48;;;;;;;13.23;8.13;;;;;;;;;;4995964;28;20022;-60
2022/04/14 11:38:58;;;;;;;10.35;6.70;;;;;;;;;;4995860;28;20034;-60
2022/04/14 11:41:44;;;;;;;9.25;4.47;;;;;;;;;;4995945;28;20030;-59
2022/04/14 11:44:15;;;;;;;9.35;5.30;;;;;;;;;;4995708;28;20034;-59
2022/04/14 11:46:47;;;;;;;7.82;4.90;;;;;;;;;;4995278;28;20027;-62
2022/04/14 11:49:18;;;;;;;7.78;4.72;;;;;;;;;;4995870;28;20495;-59
2022/04/14 11:51:47;;;;;;;7.13;4.78;;;;;;;;;;4995674;28;20049;-59
2022/04/14 11:54:19;;;;;;;8.20;4.78;;;;;;;;;;4995599;28;20496;-61
2022/04/14 11:56:50;;;;;;;8.77;5.80;;;;;;;;;;4995597;28;20113;-60
2022/04/14 11:59:48;;;;;;;11.45;5.68;;;;;;;;;;4995739;28;20034;-61
2022/04/14 12:02:19;;;;;;;10.63;6.53;;;;;;;;;;4995005;28;20404;-60
2022/04/14 12:04:49;;;;;;;9.18;6.00;;;;;;;;;;4996065;28;21413;-59
2022/04/14 12:07:15;;;;;;;8.27;4.95;;;;;;;;;;4997000;28;20235;-60
2022/04/14 12:09:42;;;;;;;8.35;5.30;;;;;;;;;;4997119;28;20073;-60
2022/04/14 12:12:14;;;;;;;7.32;4.40;;;;;;;;;;4997035;28;20030;-59
2022/04/14 12:14:42;;;;;;;7.57;4.60;;;;;;;;;;4994953;28;20029;-60
2022/04/14 12:17:08;;;;;;;8.10;5.22;;;;;;;;;;4994848;28;20092;-61
2022/04/14 12:19:41;;;;;;;11.27;7.30;;;;;;;;;;4995209;28;20030;-60
2022/04/14 12:22:07;;;;;;;9.52;6.85;;;;;;;;;;4995056;28;20462;-60
2022/04/14 12:24:32;;;;;;;16.52;10.30;;;;;;;;;;4995083;28;20049;-61
2022/04/14 12:26:59;;;;;;;14.20;9.82;;;;;;;;;;4995043;28;20456;-60
2022/04/14 12:29:25;;;;;;;12.02;7.32;;;;;;;;;;4995094;28;20113;-60
2022/04/14 12:31:56;;;;;;;12.70;8.85;;;;;;;;;;4993345;28;20026;-61
2022/04/14 12:34:22;;;;;;;8.68;5.63;;;;;;;;;;4994561;28;20026;-60
2022/04/14 12:36:48;;;;;;;7.32;5.30;;;;;;;;;;4994866;28;20053;-59
2022/04/14 12:39:20;;;;;;;8.55;5.20;;;;;;;;;;4994972;28;20468;-60
2022/04/14 12:41:46;;;;;;;9.38;5.53;;;;;;;;;;4994465;28;20491;-62
2022/04/14 12:44:18;;;;;;;10.02;6.00;;;;;;;;;;4994509;28;20360;-60
2022/04/14 12:46:50;;;;;;;8.30;5.60;;;;;;;;;;4994709;28;20155;-62
2022/04/14 12:49:22;;;;;;;7.75;5.35;;;;;;;;;;4994611;28;20054;-60
2022/04/14 12:52:03;;;;;;;8.95;5.38;;;;;;;;;;4994493;28;20032;-61
2022/04/14 12:54:29;;;;;;;6.72;4.82;;;;;;;;;;4975081;28;20082;-60
2022/04/14 12:56:56;;;;;;;7.18;5.15;;;;;;;;;;4975113;28;20023;-61
2022/04/14 12:59:21;;;;;;;7.30;5.40;;;;;;;;;;4985879;28;20022;-62
2022/04/14 13:01:53;;;;;;;7.47;5.20;;;;;;;;;;4993698;28;20530;-61
2022/04/14 13:04:40;;;;;;;9.40;5.28;;;;;;;;;;4997316;28;20057;-61
2022/04/14 13:07:13;;;;;;;9.90;6.38;;;;;;;;;;4996274;28;20029;-62
2022/04/14 13:09:56;;;;;;;10.52;5.97;;;;;;;;;;5005474;28;20065;-61
2022/04/14 13:12:42;;;;;;;8.13;5.13;;;;;;;;;;5007035;28;20073;-62
2022/04/14 13:15:09;;;;;;;8.00;5.30;;;;;;;;;;4974081;28;20119;-61
2022/04/14 13:17:39;;;;;;;12.82;6.88;;;;;;;;;;4974178;28;20114;-61
2022/04/14 13:20:09;;;;;;;11.30;7.22;;;;;;;;;;4974661;28;20372;-61
2022/04/14 13:22:34;;;;;;;;;;;;;;;;;;4974743;28;20034;-60
2022/04/14 13:25:00;;;;;;;9.25;6.15;;;;;;;;;;4975863;28;19914;-61
2022/04/14 13:27:25;;;;;;;11.45;6.38;;;;;;;;;;4993350;28;20032;-60
2022/04/14 13:29:51;;;;;;;11.88;7.32;;;;;;;;;;4991682;28;20022;-61
2022/04/14 13:32:16;;;;;;;8.15;5.53;;;;;;;;;;4993665;28;20062;-61
2022/04/14 13:34:42;;;;;;;8.10;4.80;;;;;;;;;;4993616;28;20340;-59
2022/04/14 13:37:07;;;;;;;8.52;4.78;;;;;;;;;;4993667;28;20026;-61
2022/04/14 13:39:33;;;;;;;8.65;5.20;;;;;;;;;;4993736;28;20482;-62
2022/04/14 13:41:58;;;;;;;9.25;5.35;;;;;;;;;;4993601;28;20026;-61
2022/04/14 13:44:24;;;;;;;9.68;5.57;;;;;;;;;;4993142;28;20030;-59
2022/04/14 13:46:49;;;;;;;7.38;4.55;;;;;;;;;;4993835;28;20029;-59
2022/04/14 13:49:15;;;;;;;8.68;4.90;;;;;;;;;;4993625;28;20022;-62
2022/04/14 13:51:40;;;;;;;7.55;5.30;;;;;;;;;;4993452;28;20041;-60
2022/04/14 13:54:08;;;;;;;10.20;5.25;;;;;;;;;;4993316;28;20026;-59
2022/04/14 13:56:34;;;;;;;9.13;5.55;;;;;;;;;;4993376;28;20031;-62
2022/04/14 13:59:00;;;;;;;8.55;4.93;;;;;;;;;;4993288;28;20053;-62
2022/04/14 14:01:25;;;;;;;10.95;5.00;;;;;;;;;;4993415;28;20489;-59
2022/04/14 14:03:52;;;;;;;9.13;5.07;;;;;;;;;;4993240;28;20108;-60
2022/04/14 14:06:18;;;;;;;12.70;5.70;;;;;;;;;;4993080;28;20036;-61
2022/04/14 14:08:44;;;;;;;8.50;5.45;;;;;;;;;;4993230;28;20018;-61
2022/04/14 14:11:09;;;;;;;9.40;5.45;;;;;;;;;;4993096;28;20022;-62
2022/04/14 14:13:35;;;;;;;10.30;7.32;;;;;;;;;;4992973;28;20092;-60
2022/04/14 14:16:00;;;;;;;9.35;5.70;;;;;;;;;;4993207;28;20026;-61
2022/04/14 14:18:26;;;;;;;10.30;5.40;;;;;;;;;;4993074;28;20034;-61
2022/04/14 14:20:51;;;;;;;8.82;5.82;;;;;;;;;;4993132;28;20083;-61
2022/04/14 14:23:17;;;;;;;10.07;5.65;;;;;;;;;;4993165;28;20030;-61
2022/04/14 14:25:42;;;;;;;9.18;5.40;;;;;;;;;;4992602;28;20072;-62
2022/04/14 14:28:08;;;;;;;9.63;6.00;;;;;;;;;;4992737;28;20419;-60
2022/04/14 14:30:34;;;;;;;8.77;5.82;;;;;;;;;;4992909;28;20026;-58
2022/04/14 14:33:00;;;;;;;8.95;5.60;;;;;;;;;;4993138;28;20077;-59